This is the latest recevied weather packets stored in our database for station/object K8JCL-13. If no packets are shown the sender has not sent any weather packets the latest 1 day(s).
| Time | Temp. | Humidity | Pressure | Rain* | Wind** | Luminosity | Snow |
|---|---|---|---|---|---|---|---|
| 1778034061 | 10° C | 99% | 1008.4 hPa | 1.27 mm | - | 0 W/m² | - |
| 1778033759 | 10° C | 99% | 1008.4 hPa | 3.05 mm | - | 0 W/m² | - |
| 1778033147 | 10.56° C | 99% | 1008.4 hPa | 3.05 mm | - | 0 W/m² | - |
| 1778032845 | 10.56° C | 99% | 1008.5 hPa | 3.05 mm | - | 0 W/m² | - |
| 1778032239 | 10.56° C | 99% | 1008.2 hPa | 1.78 mm | - | 0 W/m² | - |
| 1778031937 | 11.11° C | 99% | 1008 hPa | 1.78 mm | - | 0 W/m² | - |
| 1778031632 | 11.11° C | 99% | 1007.9 hPa | 1.27 mm | - | 0 W/m² | - |
| 1778031331 | 11.67° C | 99% | 1007.8 hPa | 1.27 mm | - | 0 W/m² | - |
| 1778031027 | 12.22° C | 99% | 1007.8 hPa | 1.78 mm | - | 0 W/m² | - |
| 1778030723 | 12.78° C | 99% | 1007.8 hPa | 3.05 mm | - | 0 W/m² | - |
| 1778030420 | 12.78° C | 99% | 1007.5 hPa | 3.05 mm | - | 0 W/m² | - |
| 1778030118 | 15° C | 99% | 1007.4 hPa | 4.83 mm | - | 0 W/m² | - |
| 1778029814 | 15° C | 99% | 1007.4 hPa | 4.83 mm | - | 0 W/m² | - |
| 1778029508 | 15° C | 99% | 1007.8 hPa | 6.1 mm | - | 0 W/m² | - |
| 1778028596 | 15° C | 99% | 1007.6 hPa | 0 mm | - | 0 W/m² | - |
| 1778027990 | 15° C | 99% | 1007.3 hPa | 1.27 mm | - | 0 W/m² | - |
| 1778027687 | 15° C | 99% | 1007.3 hPa | 1.27 mm | - | 0 W/m² | - |
| 1778027383 | 15° C | 99% | 1007.1 hPa | 1.78 mm | - | 0 W/m² | - |
| 1778026775 | 15° C | 99% | 1007 hPa | 3.05 mm | - | 1 W/m² | - |
| 1778025867 | 15° C | 99% | 1007.2 hPa | 3.56 mm | - | 1 W/m² | - |
| 1778025262 | 15° C | 99% | 1007.2 hPa | 1.78 mm | - | 3 W/m² | - |
| 1778024656 | 15.56° C | 99% | 1007.1 hPa | 1.27 mm | - | 4 W/m² | - |
| 1778021931 | 15.56° C | 99% | 1007.5 hPa | 1.27 mm | - | 13 W/m² | - |
| 1778020111 | 15.56° C | 99% | 1008 hPa | 3.05 mm | - | 24 W/m² | - |
| 1778017386 | 15.56° C | 99% | 1008 hPa | 3.05 mm | - | 14 W/m² | - |
* Rain latest hour (hover to see other rain measurements)
** Current wind speed in m/s (hover to see current wind gust speed)